sensor_id;sensor_type;location;lat;lon;timestamp;P1;durP1;ratioP1;P2;durP2;ratioP2
82028;SDS011;71590;52.216;13.448;2023-09-08T00:01:22;10.70;;;9.67;;
82028;SDS011;71590;52.216;13.448;2023-09-08T00:03:49;11.07;;;9.70;;
82028;SDS011;71590;52.216;13.448;2023-09-08T00:06:17;10.17;;;9.33;;
82028;SDS011;71590;52.216;13.448;2023-09-08T00:08:44;11.53;;;9.03;;
82028;SDS011;71590;52.216;13.448;2023-09-08T00:11:11;10.77;;;9.70;;
82028;SDS011;71590;52.216;13.448;2023-09-08T00:13:38;11.80;;;9.73;;
82028;SDS011;71590;52.216;13.448;2023-09-08T00:16:06;11.37;;;9.27;;
82028;SDS011;71590;52.216;13.448;2023-09-08T00:18:34;9.93;;;9.07;;
82028;SDS011;71590;52.216;13.448;2023-09-08T00:21:02;10.70;;;9.60;;
82028;SDS011;71590;52.216;13.448;2023-09-08T00:23:29;11.63;;;9.13;;
82028;SDS011;71590;52.216;13.448;2023-09-08T00:25:56;10.03;;;9.17;;
82028;SDS011;71590;52.216;13.448;2023-09-08T00:28:25;10.23;;;9.10;;
82028;SDS011;71590;52.216;13.448;2023-09-08T00:30:52;10.57;;;9.60;;
82028;SDS011;71590;52.216;13.448;2023-09-08T00:33:19;10.30;;;9.30;;
82028;SDS011;71590;52.216;13.448;2023-09-08T00:35:48;10.57;;;9.47;;
82028;SDS011;71590;52.216;13.448;2023-09-08T00:38:16;11.03;;;9.60;;
82028;SDS011;71590;52.216;13.448;2023-09-08T00:40:43;11.23;;;10.20;;
82028;SDS011;71590;52.216;13.448;2023-09-08T00:43:11;11.00;;;9.90;;
82028;SDS011;71590;52.216;13.448;2023-09-08T00:45:39;9.83;;;8.93;;
82028;SDS011;71590;52.216;13.448;2023-09-08T00:48:07;11.40;;;9.43;;
82028;SDS011;71590;52.216;13.448;2023-09-08T00:50:35;10.70;;;9.70;;
82028;SDS011;71590;52.216;13.448;2023-09-08T00:53:04;10.97;;;9.03;;
82028;SDS011;71590;52.216;13.448;2023-09-08T00:55:31;10.33;;;9.33;;
82028;SDS011;71590;52.216;13.448;2023-09-08T00:57:59;10.40;;;9.40;;
82028;SDS011;71590;52.216;13.448;2023-09-08T01:00:27;10.00;;;9.10;;
82028;SDS011;71590;52.216;13.448;2023-09-08T01:02:54;10.37;;;9.37;;
82028;SDS011;71590;52.216;13.448;2023-09-08T01:05:21;11.30;;;9.97;;
82028;SDS011;71590;52.216;13.448;2023-09-08T01:07:49;11.33;;;10.13;;
82028;SDS011;71590;52.216;13.448;2023-09-08T01:10:17;10.40;;;9.40;;
82028;SDS011;71590;52.216;13.448;2023-09-08T01:12:44;11.40;;;9.47;;
82028;SDS011;71590;52.216;13.448;2023-09-08T01:15:11;11.47;;;10.23;;
82028;SDS011;71590;52.216;13.448;2023-09-08T01:17:39;11.07;;;10.07;;
82028;SDS011;71590;52.216;13.448;2023-09-08T01:20:10;11.37;;;10.23;;
82028;SDS011;71590;52.216;13.448;2023-09-08T01:22:52;9.97;;;9.13;;
82028;SDS011;71590;52.216;13.448;2023-09-08T01:25:25;9.83;;;8.90;;
82028;SDS011;71590;52.216;13.448;2023-09-08T01:27:54;11.17;;;10.27;;
82028;SDS011;71590;52.216;13.448;2023-09-08T01:30:23;11.50;;;10.13;;
82028;SDS011;71590;52.216;13.448;2023-09-08T01:32:50;10.93;;;9.93;;
82028;SDS011;71590;52.216;13.448;2023-09-08T01:35:18;12.87;;;10.03;;
82028;SDS011;71590;52.216;13.448;2023-09-08T01:37:46;11.20;;;10.20;;
82028;SDS011;71590;52.216;13.448;2023-09-08T01:40:14;11.63;;;10.50;;
82028;SDS011;71590;52.216;13.448;2023-09-08T01:42:42;10.93;;;9.87;;
82028;SDS011;71590;52.216;13.448;2023-09-08T01:45:09;11.20;;;9.97;;
82028;SDS011;71590;52.216;13.448;2023-09-08T01:47:37;11.90;;;10.77;;
82028;SDS011;71590;52.216;13.448;2023-09-08T01:50:04;12.47;;;11.37;;
82028;SDS011;71590;52.216;13.448;2023-09-08T01:52:32;12.93;;;11.33;;
82028;SDS011;71590;52.216;13.448;2023-09-08T01:55:00;11.67;;;10.67;;
82028;SDS011;71590;52.216;13.448;2023-09-08T01:57:27;12.07;;;10.30;;
82028;SDS011;71590;52.216;13.448;2023-09-08T01:59:55;12.33;;;11.13;;
82028;SDS011;71590;52.216;13.448;2023-09-08T02:02:22;12.70;;;11.47;;
82028;SDS011;71590;52.216;13.448;2023-09-08T02:04:49;12.60;;;11.30;;
82028;SDS011;71590;52.216;13.448;2023-09-08T02:07:17;12.37;;;10.90;;
82028;SDS011;71590;52.216;13.448;2023-09-08T02:09:46;13.20;;;11.70;;
82028;SDS011;71590;52.216;13.448;2023-09-08T02:12:13;12.20;;;11.07;;
82028;SDS011;71590;52.216;13.448;2023-09-08T02:14:40;12.63;;;11.53;;
82028;SDS011;71590;52.216;13.448;2023-09-08T02:17:08;12.70;;;10.77;;
82028;SDS011;71590;52.216;13.448;2023-09-08T02:19:36;11.73;;;10.83;;
82028;SDS011;71590;52.216;13.448;2023-09-08T02:22:03;12.63;;;11.43;;
82028;SDS011;71590;52.216;13.448;2023-09-08T02:24:30;12.63;;;11.53;;
82028;SDS011;71590;52.216;13.448;2023-09-08T02:26:58;12.90;;;11.63;;
82028;SDS011;71590;52.216;13.448;2023-09-08T02:29:25;12.80;;;11.70;;
82028;SDS011;71590;52.216;13.448;2023-09-08T02:31:55;12.03;;;10.93;;
82028;SDS011;71590;52.216;13.448;2023-09-08T02:34:23;13.13;;;11.93;;
82028;SDS011;71590;52.216;13.448;2023-09-08T02:36:50;13.97;;;11.90;;
82028;SDS011;71590;52.216;13.448;2023-09-08T02:39:21;13.13;;;11.80;;
82028;SDS011;71590;52.216;13.448;2023-09-08T02:41:49;14.00;;;12.80;;
82028;SDS011;71590;52.216;13.448;2023-09-08T02:44:17;13.77;;;12.47;;
82028;SDS011;71590;52.216;13.448;2023-09-08T02:46:45;13.27;;;12.17;;
82028;SDS011;71590;52.216;13.448;2023-09-08T02:49:12;14.80;;;12.57;;
82028;SDS011;71590;52.216;13.448;2023-09-08T02:51:39;13.63;;;12.27;;
82028;SDS011;71590;52.216;13.448;2023-09-08T02:54:07;13.03;;;11.90;;
82028;SDS011;71590;52.216;13.448;2023-09-08T02:56:36;13.10;;;11.80;;
82028;SDS011;71590;52.216;13.448;2023-09-08T02:59:03;13.53;;;12.23;;
82028;SDS011;71590;52.216;13.448;2023-09-08T03:01:30;12.60;;;11.50;;
82028;SDS011;71590;52.216;13.448;2023-09-08T03:03:58;13.63;;;12.40;;
82028;SDS011;71590;52.216;13.448;2023-09-08T03:06:26;14.33;;;13.03;;
82028;SDS011;71590;52.216;13.448;2023-09-08T03:08:54;15.43;;;13.73;;
82028;SDS011;71590;52.216;13.448;2023-09-08T03:11:22;13.60;;;12.50;;
82028;SDS011;71590;52.216;13.448;2023-09-08T03:13:50;15.87;;;13.07;;
82028;SDS011;71590;52.216;13.448;2023-09-08T03:16:18;14.50;;;13.13;;
82028;SDS011;71590;52.216;13.448;2023-09-08T03:18:47;13.63;;;12.33;;
82028;SDS011;71590;52.216;13.448;2023-09-08T03:21:14;14.03;;;12.67;;
82028;SDS011;71590;52.216;13.448;2023-09-08T03:23:43;14.90;;;13.40;;
82028;SDS011;71590;52.216;13.448;2023-09-08T03:26:11;14.57;;;13.27;;
82028;SDS011;71590;52.216;13.448;2023-09-08T03:28:38;14.37;;;13.00;;
82028;SDS011;71590;52.216;13.448;2023-09-08T03:31:05;15.13;;;13.63;;
82028;SDS011;71590;52.216;13.448;2023-09-08T03:33:34;13.53;;;12.43;;
82028;SDS011;71590;52.216;13.448;2023-09-08T03:36:04;14.63;;;13.27;;
82028;SDS011;71590;52.216;13.448;2023-09-08T03:38:32;14.67;;;13.37;;
82028;SDS011;71590;52.216;13.448;2023-09-08T03:41:00;13.20;;;11.93;;
82028;SDS011;71590;52.216;13.448;2023-09-08T03:43:28;13.40;;;12.13;;
82028;SDS011;71590;52.216;13.448;2023-09-08T03:45:56;14.73;;;13.33;;
82028;SDS011;71590;52.216;13.448;2023-09-08T03:48:23;14.10;;;12.90;;
82028;SDS011;71590;52.216;13.448;2023-09-08T03:50:51;16.17;;;14.50;;
82028;SDS011;71590;52.216;13.448;2023-09-08T03:53:18;14.77;;;13.27;;
82028;SDS011;71590;52.216;13.448;2023-09-08T03:55:46;15.33;;;13.93;;
82028;SDS011;71590;52.216;13.448;2023-09-08T03:58:13;16.80;;;15.13;;
82028;SDS011;71590;52.216;13.448;2023-09-08T04:00:42;15.57;;;14.07;;
82028;SDS011;71590;52.216;13.448;2023-09-08T04:03:10;15.67;;;14.17;;
82028;SDS011;71590;52.216;13.448;2023-09-08T04:05:38;16.47;;;14.87;;
82028;SDS011;71590;52.216;13.448;2023-09-08T04:08:05;15.93;;;14.50;;
82028;SDS011;71590;52.216;13.448;2023-09-08T04:10:33;16.83;;;15.30;;
82028;SDS011;71590;52.216;13.448;2023-09-08T04:13:00;16.17;;;14.67;;
82028;SDS011;71590;52.216;13.448;2023-09-08T04:15:28;17.53;;;14.17;;
82028;SDS011;71590;52.216;13.448;2023-09-08T04:17:55;16.50;;;14.80;;
82028;SDS011;71590;52.216;13.448;2023-09-08T04:20:24;14.93;;;13.47;;
82028;SDS011;71590;52.216;13.448;2023-09-08T04:22:53;16.47;;;14.73;;
82028;SDS011;71590;52.216;13.448;2023-09-08T04:25:20;16.50;;;15.00;;
82028;SDS011;71590;52.216;13.448;2023-09-08T04:27:48;16.60;;;15.00;;
82028;SDS011;71590;52.216;13.448;2023-09-08T04:30:15;15.17;;;13.83;;
82028;SDS011;71590;52.216;13.448;2023-09-08T04:32:44;16.47;;;14.87;;
82028;SDS011;71590;52.216;13.448;2023-09-08T04:35:11;17.43;;;15.63;;
82028;SDS011;71590;52.216;13.448;2023-09-08T04:37:38;16.00;;;14.40;;
82028;SDS011;71590;52.216;13.448;2023-09-08T04:40:06;16.77;;;15.23;;
82028;SDS011;71590;52.216;13.448;2023-09-08T04:42:34;18.07;;;16.47;;
82028;SDS011;71590;52.216;13.448;2023-09-08T04:45:02;15.60;;;14.00;;
82028;SDS011;71590;52.216;13.448;2023-09-08T04:47:29;16.57;;;15.07;;
82028;SDS011;71590;52.216;13.448;2023-09-08T04:49:57;15.80;;;14.50;;
82028;SDS011;71590;52.216;13.448;2023-09-08T04:52:24;18.07;;;16.47;;
82028;SDS011;71590;52.216;13.448;2023-09-08T04:54:52;17.43;;;15.80;;
82028;SDS011;71590;52.216;13.448;2023-09-08T04:57:19;17.13;;;15.23;;
82028;SDS011;71590;52.216;13.448;2023-09-08T04:59:51;17.30;;;15.60;;
82028;SDS011;71590;52.216;13.448;2023-09-08T05:02:19;17.57;;;16.07;;
82028;SDS011;71590;52.216;13.448;2023-09-08T05:04:47;15.00;;;13.60;;
82028;SDS011;71590;52.216;13.448;2023-09-08T05:07:15;15.43;;;13.87;;
82028;SDS011;71590;52.216;13.448;2023-09-08T05:09:42;17.10;;;14.77;;
82028;SDS011;71590;52.216;13.448;2023-09-08T05:12:10;15.53;;;14.13;;
82028;SDS011;71590;52.216;13.448;2023-09-08T05:14:37;15.40;;;13.77;;
82028;SDS011;71590;52.216;13.448;2023-09-08T05:17:05;15.50;;;14.10;;
82028;SDS011;71590;52.216;13.448;2023-09-08T05:19:32;16.00;;;14.53;;
82028;SDS011;71590;52.216;13.448;2023-09-08T05:21:59;15.23;;;13.83;;
82028;SDS011;71590;52.216;13.448;2023-09-08T05:24:28;14.77;;;13.57;;
82028;SDS011;71590;52.216;13.448;2023-09-08T05:26:56;16.33;;;14.60;;
82028;SDS011;71590;52.216;13.448;2023-09-08T05:29:24;14.93;;;13.43;;
82028;SDS011;71590;52.216;13.448;2023-09-08T05:31:52;16.30;;;14.57;;
82028;SDS011;71590;52.216;13.448;2023-09-08T05:34:20;15.30;;;13.83;;
82028;SDS011;71590;52.216;13.448;2023-09-08T05:36:48;15.70;;;14.10;;
82028;SDS011;71590;52.216;13.448;2023-09-08T05:39:15;16.43;;;14.13;;
82028;SDS011;71590;52.216;13.448;2023-09-08T05:41:45;14.80;;;13.13;;
82028;SDS011;71590;52.216;13.448;2023-09-08T05:44:12;15.10;;;13.70;;
82028;SDS011;71590;52.216;13.448;2023-09-08T05:46:40;14.80;;;13.30;;
82028;SDS011;71590;52.216;13.448;2023-09-08T05:49:07;14.67;;;13.33;;
82028;SDS011;71590;52.216;13.448;2023-09-08T05:51:36;15.03;;;13.50;;
82028;SDS011;71590;52.216;13.448;2023-09-08T05:54:03;14.73;;;13.33;;
82028;SDS011;71590;52.216;13.448;2023-09-08T05:56:31;15.23;;;13.73;;
82028;SDS011;71590;52.216;13.448;2023-09-08T05:58:59;16.03;;;14.43;;
82028;SDS011;71590;52.216;13.448;2023-09-08T06:01:27;16.07;;;14.50;;
82028;SDS011;71590;52.216;13.448;2023-09-08T06:03:56;16.00;;;14.40;;
82028;SDS011;71590;52.216;13.448;2023-09-08T06:06:25;14.97;;;13.47;;
82028;SDS011;71590;52.216;13.448;2023-09-08T06:08:55;15.53;;;14.03;;
82028;SDS011;71590;52.216;13.448;2023-09-08T06:11:24;15.23;;;13.73;;
82028;SDS011;71590;52.216;13.448;2023-09-08T06:13:51;18.40;;;13.57;;
82028;SDS011;71590;52.216;13.448;2023-09-08T06:16:22;15.63;;;14.10;;
82028;SDS011;71590;52.216;13.448;2023-09-08T06:18:49;14.93;;;13.43;;
82028;SDS011;71590;52.216;13.448;2023-09-08T06:21:19;14.70;;;13.23;;
82028;SDS011;71590;52.216;13.448;2023-09-08T06:23:46;15.23;;;13.67;;
82028;SDS011;71590;52.216;13.448;2023-09-08T06:26:14;14.57;;;13.10;;
82028;SDS011;71590;52.216;13.448;2023-09-08T06:28:41;14.77;;;13.20;;
82028;SDS011;71590;52.216;13.448;2023-09-08T06:31:09;13.90;;;12.43;;
82028;SDS011;71590;52.216;13.448;2023-09-08T06:33:39;16.57;;;13.27;;
82028;SDS011;71590;52.216;13.448;2023-09-08T06:36:06;13.37;;;12.03;;
82028;SDS011;71590;52.216;13.448;2023-09-08T06:38:33;13.67;;;12.30;;
82028;SDS011;71590;52.216;13.448;2023-09-08T06:41:07;12.53;;;11.33;;
82028;SDS011;71590;52.216;13.448;2023-09-08T06:43:35;13.53;;;12.23;;
82028;SDS011;71590;52.216;13.448;2023-09-08T06:46:07;13.70;;;12.47;;
82028;SDS011;71590;52.216;13.448;2023-09-08T06:48:35;12.13;;;10.87;;
82028;SDS011;71590;52.216;13.448;2023-09-08T06:51:03;12.80;;;11.07;;
82028;SDS011;71590;52.216;13.448;2023-09-08T06:53:31;11.77;;;10.67;;
82028;SDS011;71590;52.216;13.448;2023-09-08T06:55:59;11.10;;;9.83;;
82028;SDS011;71590;52.216;13.448;2023-09-08T06:58:26;12.80;;;10.17;;
82028;SDS011;71590;52.216;13.448;2023-09-08T07:00:54;10.73;;;9.37;;
82028;SDS011;71590;52.216;13.448;2023-09-08T07:03:22;9.27;;;8.33;;
82028;SDS011;71590;52.216;13.448;2023-09-08T07:05:51;12.27;;;9.50;;
82028;SDS011;71590;52.216;13.448;2023-09-08T07:08:20;9.43;;;8.53;;
82028;SDS011;71590;52.216;13.448;2023-09-08T07:10:51;11.90;;;9.30;;
82028;SDS011;71590;52.216;13.448;2023-09-08T07:13:19;10.63;;;8.63;;
82028;SDS011;71590;52.216;13.448;2023-09-08T07:15:46;11.07;;;8.73;;
82028;SDS011;71590;52.216;13.448;2023-09-08T07:18:14;11.37;;;9.47;;
82028;SDS011;71590;52.216;13.448;2023-09-08T07:20:45;11.77;;;9.13;;
82028;SDS011;71590;52.216;13.448;2023-09-08T07:23:13;10.53;;;8.23;;
82028;SDS011;71590;52.216;13.448;2023-09-08T07:25:44;10.17;;;8.73;;
82028;SDS011;71590;52.216;13.448;2023-09-08T07:28:12;11.57;;;8.80;;
82028;SDS011;71590;52.216;13.448;2023-09-08T07:30:39;13.10;;;8.00;;
82028;SDS011;71590;52.216;13.448;2023-09-08T07:33:06;9.03;;;7.27;;
82028;SDS011;71590;52.216;13.448;2023-09-08T07:35:38;8.80;;;7.90;;
82028;SDS011;71590;52.216;13.448;2023-09-08T07:38:06;8.53;;;7.20;;
82028;SDS011;71590;52.216;13.448;2023-09-08T07:40:33;8.30;;;7.50;;
82028;SDS011;71590;52.216;13.448;2023-09-08T07:43:01;8.75;;;7.80;;
82028;SDS011;71590;52.216;13.448;2023-09-08T07:45:29;7.72;;;7.13;;
82028;SDS011;71590;52.216;13.448;2023-09-08T07:47:56;7.97;;;7.17;;
82028;SDS011;71590;52.216;13.448;2023-09-08T07:50:24;8.52;;;7.72;;
82028;SDS011;71590;52.216;13.448;2023-09-08T07:52:52;8.65;;;7.10;;
82028;SDS011;71590;52.216;13.448;2023-09-08T07:55:20;8.43;;;6.97;;
82028;SDS011;71590;52.216;13.448;2023-09-08T07:57:50;7.90;;;7.15;;
82028;SDS011;71590;52.216;13.448;2023-09-08T08:00:17;8.32;;;7.43;;
82028;SDS011;71590;52.216;13.448;2023-09-08T08:02:45;9.05;;;7.68;;
82028;SDS011;71590;52.216;13.448;2023-09-08T08:05:13;7.72;;;7.10;;
82028;SDS011;71590;52.216;13.448;2023-09-08T08:07:40;7.80;;;7.07;;
82028;SDS011;71590;52.216;13.448;2023-09-08T08:10:09;9.95;;;7.32;;
82028;SDS011;71590;52.216;13.448;2023-09-08T08:12:37;8.65;;;7.03;;
82028;SDS011;71590;52.216;13.448;2023-09-08T08:15:04;8.05;;;6.70;;
82028;SDS011;71590;52.216;13.448;2023-09-08T08:17:32;10.48;;;6.90;;
82028;SDS011;71590;52.216;13.448;2023-09-08T08:19:59;9.10;;;7.18;;
82028;SDS011;71590;52.216;13.448;2023-09-08T08:22:33;8.98;;;6.80;;
82028;SDS011;71590;52.216;13.448;2023-09-08T08:25:00;8.93;;;6.50;;
82028;SDS011;71590;52.216;13.448;2023-09-08T08:27:28;7.25;;;6.60;;
82028;SDS011;71590;52.216;13.448;2023-09-08T08:29:57;7.82;;;7.07;;
82028;SDS011;71590;52.216;13.448;2023-09-08T08:32:27;8.13;;;7.30;;
82028;SDS011;71590;52.216;13.448;2023-09-08T08:34:55;9.05;;;6.93;;
82028;SDS011;71590;52.216;13.448;2023-09-08T08:37:23;7.60;;;6.70;;
82028;SDS011;71590;52.216;13.448;2023-09-08T08:39:50;8.07;;;6.55;;
82028;SDS011;71590;52.216;13.448;2023-09-08T08:42:18;7.30;;;6.60;;
82028;SDS011;71590;52.216;13.448;2023-09-08T08:44:48;7.30;;;6.60;;
82028;SDS011;71590;52.216;13.448;2023-09-08T08:47:16;8.90;;;7.47;;
82028;SDS011;71590;52.216;13.448;2023-09-08T08:49:44;12.60;;;6.97;;
82028;SDS011;71590;52.216;13.448;2023-09-08T08:52:13;7.53;;;6.82;;
82028;SDS011;71590;52.216;13.448;2023-09-08T08:54:41;8.15;;;6.40;;
82028;SDS011;71590;52.216;13.448;2023-09-08T08:57:09;7.40;;;6.68;;
82028;SDS011;71590;52.216;13.448;2023-09-08T08:59:38;7.68;;;6.90;;
82028;SDS011;71590;52.216;13.448;2023-09-08T09:02:05;7.75;;;7.00;;
82028;SDS011;71590;52.216;13.448;2023-09-08T09:04:33;7.85;;;7.05;;
82028;SDS011;71590;52.216;13.448;2023-09-08T09:07:01;7.47;;;6.70;;
82028;SDS011;71590;52.216;13.448;2023-09-08T09:09:29;8.05;;;6.25;;
82028;SDS011;71590;52.216;13.448;2023-09-08T09:11:56;8.43;;;6.22;;
82028;SDS011;71590;52.216;13.448;2023-09-08T09:14:24;7.05;;;6.35;;
82028;SDS011;71590;52.216;13.448;2023-09-08T09:16:51;7.90;;;7.18;;
82028;SDS011;71590;52.216;13.448;2023-09-08T09:19:20;6.50;;;5.88;;
82028;SDS011;71590;52.216;13.448;2023-09-08T09:21:51;6.95;;;6.25;;
82028;SDS011;71590;52.216;13.448;2023-09-08T09:26:58;9.88;;;8.60;;
82028;SDS011;71590;52.216;13.448;2023-09-08T09:29:27;6.78;;;6.28;;
82028;SDS011;71590;52.216;13.448;2023-09-08T09:31:55;7.93;;;7.20;;
82028;SDS011;71590;52.216;13.448;2023-09-08T09:34:23;7.97;;;7.18;;
82028;SDS011;71590;52.216;13.448;2023-09-08T09:36:51;7.85;;;7.07;;
82028;SDS011;71590;52.216;13.448;2023-09-08T09:39:19;6.57;;;5.97;;
82028;SDS011;71590;52.216;13.448;2023-09-08T09:41:47;10.13;;;7.05;;
82028;SDS011;71590;52.216;13.448;2023-09-08T09:44:15;8.80;;;6.90;;
82028;SDS011;71590;52.216;13.448;2023-09-08T09:46:43;9.25;;;6.50;;
82028;SDS011;71590;52.216;13.448;2023-09-08T09:49:15;6.95;;;6.05;;
82028;SDS011;71590;52.216;13.448;2023-09-08T09:51:50;7.35;;;6.68;;
82028;SDS011;71590;52.216;13.448;2023-09-08T09:54:17;7.38;;;6.68;;
82028;SDS011;71590;52.216;13.448;2023-09-08T09:56:45;10.18;;;7.00;;
82028;SDS011;71590;52.216;13.448;2023-09-08T09:59:17;9.20;;;6.85;;
82028;SDS011;71590;52.216;13.448;2023-09-08T10:01:44;8.23;;;6.78;;
82028;SDS011;71590;52.216;13.448;2023-09-08T10:04:12;8.48;;;6.47;;
82028;SDS011;71590;52.216;13.448;2023-09-08T10:06:42;7.50;;;6.57;;
82028;SDS011;71590;52.216;13.448;2023-09-08T10:09:10;8.40;;;6.63;;
82028;SDS011;71590;52.216;13.448;2023-09-08T10:11:47;7.55;;;6.75;;
82028;SDS011;71590;52.216;13.448;2023-09-08T10:14:16;7.22;;;6.50;;
82028;SDS011;71590;52.216;13.448;2023-09-08T10:16:44;8.40;;;6.15;;
82028;SDS011;71590;52.216;13.448;2023-09-08T10:19:16;7.13;;;5.60;;
82028;SDS011;71590;52.216;13.448;2023-09-08T10:21:47;7.93;;;6.03;;
82028;SDS011;71590;52.216;13.448;2023-09-08T10:24:15;11.02;;;6.53;;
82028;SDS011;71590;52.216;13.448;2023-09-08T10:26:44;7.95;;;6.20;;
82028;SDS011;71590;52.216;13.448;2023-09-08T10:29:14;6.60;;;6.00;;
82028;SDS011;71590;52.216;13.448;2023-09-08T10:31:41;6.53;;;5.85;;
82028;SDS011;71590;52.216;13.448;2023-09-08T10:34:09;6.03;;;5.53;;
82028;SDS011;71590;52.216;13.448;2023-09-08T10:36:36;6.38;;;5.85;;
82028;SDS011;71590;52.216;13.448;2023-09-08T10:39:27;6.07;;;5.47;;
82028;SDS011;71590;52.216;13.448;2023-09-08T10:45:14;11.55;;;6.68;;
82028;SDS011;71590;52.216;13.448;2023-09-08T10:47:32;6.88;;;6.28;;
82028;SDS011;71590;52.216;13.448;2023-09-08T10:50:00;6.60;;;6.00;;
82028;SDS011;71590;52.216;13.448;2023-09-08T10:52:29;6.35;;;5.75;;
82028;SDS011;71590;52.216;13.448;2023-09-08T10:54:59;6.90;;;6.30;;
82028;SDS011;71590;52.216;13.448;2023-09-08T10:57:28;7.38;;;5.82;;
82028;SDS011;71590;52.216;13.448;2023-09-08T10:59:58;7.47;;;5.43;;
82028;SDS011;71590;52.216;13.448;2023-09-08T11:02:42;7.18;;;6.35;;
82028;SDS011;71590;52.216;13.448;2023-09-08T11:05:15;9.48;;;6.05;;
82028;SDS011;71590;52.216;13.448;2023-09-08T11:07:43;6.05;;;5.00;;
82028;SDS011;71590;52.216;13.448;2023-09-08T11:10:11;6.55;;;5.85;;
82028;SDS011;71590;52.216;13.448;2023-09-08T11:12:39;6.63;;;5.78;;
82028;SDS011;71590;52.216;13.448;2023-09-08T11:15:07;6.35;;;5.75;;
82028;SDS011;71590;52.216;13.448;2023-09-08T11:17:35;6.47;;;5.80;;
82028;SDS011;71590;52.216;13.448;2023-09-08T11:20:06;6.13;;;5.53;;
82028;SDS011;71590;52.216;13.448;2023-09-08T11:22:38;7.10;;;6.30;;
82028;SDS011;71590;52.216;13.448;2023-09-08T11:25:07;7.20;;;5.43;;
82028;SDS011;71590;52.216;13.448;2023-09-08T11:27:37;7.15;;;5.35;;
82028;SDS011;71590;52.216;13.448;2023-09-08T11:30:07;8.75;;;5.20;;
82028;SDS011;71590;52.216;13.448;2023-09-08T11:32:35;6.28;;;5.65;;
82028;SDS011;71590;52.216;13.448;2023-09-08T11:35:07;5.40;;;4.90;;
82028;SDS011;71590;52.216;13.448;2023-09-08T11:37:39;8.45;;;5.63;;
82028;SDS011;71590;52.216;13.448;2023-09-08T11:40:11;5.70;;;4.82;;
82028;SDS011;71590;52.216;13.448;2023-09-08T11:42:40;5.30;;;4.80;;
82028;SDS011;71590;52.216;13.448;2023-09-08T11:45:15;5.93;;;5.43;;
82028;SDS011;71590;52.216;13.448;2023-09-08T11:47:50;6.03;;;5.50;;
82028;SDS011;71590;52.216;13.448;2023-09-08T11:50:18;6.30;;;5.70;;
82028;SDS011;71590;52.216;13.448;2023-09-08T11:52:45;5.65;;;5.15;;
82028;SDS011;71590;52.216;13.448;2023-09-08T11:55:13;5.63;;;5.20;;
82028;SDS011;71590;52.216;13.448;2023-09-08T11:57:41;8.02;;;5.25;;
82028;SDS011;71590;52.216;13.448;2023-09-08T12:00:10;6.72;;;5.72;;
82028;SDS011;71590;52.216;13.448;2023-09-08T12:02:44;5.28;;;4.75;;
82028;SDS011;71590;52.216;13.448;2023-09-08T12:05:12;5.15;;;4.68;;
82028;SDS011;71590;52.216;13.448;2023-09-08T12:07:40;7.03;;;5.47;;
82028;SDS011;71590;52.216;13.448;2023-09-08T12:10:08;6.00;;;5.40;;
82028;SDS011;71590;52.216;13.448;2023-09-08T12:15:29;5.65;;;5.15;;
82028;SDS011;71590;52.216;13.448;2023-09-08T12:17:58;5.47;;;4.97;;
82028;SDS011;71590;52.216;13.448;2023-09-08T12:20:25;5.60;;;5.10;;
82028;SDS011;71590;52.216;13.448;2023-09-08T12:22:53;5.85;;;5.28;;
82028;SDS011;71590;52.216;13.448;2023-09-08T12:25:21;5.68;;;5.07;;
82028;SDS011;71590;52.216;13.448;2023-09-08T12:27:49;10.52;;;5.68;;
82028;SDS011;71590;52.216;13.448;2023-09-08T12:30:21;9.32;;;5.40;;
82028;SDS011;71590;52.216;13.448;2023-09-08T12:32:50;5.80;;;5.25;;
82028;SDS011;71590;52.216;13.448;2023-09-08T12:35:21;7.93;;;6.43;;
82028;SDS011;71590;52.216;13.448;2023-09-08T12:37:59;5.78;;;5.28;;
82028;SDS011;71590;52.216;13.448;2023-09-08T12:40:27;5.43;;;4.93;;
82028;SDS011;71590;52.216;13.448;2023-09-08T12:42:55;6.95;;;5.82;;
82028;SDS011;71590;52.216;13.448;2023-09-08T12:45:37;6.25;;;5.68;;
82028;SDS011;71590;52.216;13.448;2023-09-08T12:48:04;5.50;;;5.00;;
82028;SDS011;71590;52.216;13.448;2023-09-08T12:50:33;6.45;;;5.80;;
82028;SDS011;71590;52.216;13.448;2023-09-08T12:53:00;6.60;;;5.30;;
82028;SDS011;71590;52.216;13.448;2023-09-08T12:55:27;7.30;;;5.97;;
82028;SDS011;71590;52.216;13.448;2023-09-08T12:57:55;7.88;;;6.10;;
82028;SDS011;71590;52.216;13.448;2023-09-08T13:00:23;6.65;;;5.72;;
82028;SDS011;71590;52.216;13.448;2023-09-08T13:02:52;5.95;;;5.45;;
82028;SDS011;71590;52.216;13.448;2023-09-08T13:05:19;5.35;;;4.88;;
82028;SDS011;71590;52.216;13.448;2023-09-08T13:07:47;8.70;;;5.38;;
82028;SDS011;71590;52.216;13.448;2023-09-08T13:10:14;6.68;;;5.72;;
82028;SDS011;71590;52.216;13.448;2023-09-08T13:12:42;5.97;;;5.40;;
82028;SDS011;71590;52.216;13.448;2023-09-08T13:15:09;5.70;;;5.20;;
82028;SDS011;71590;52.216;13.448;2023-09-08T13:17:37;12.00;;;6.13;;
82028;SDS011;71590;52.216;13.448;2023-09-08T13:20:04;7.60;;;5.47;;
82028;SDS011;71590;52.216;13.448;2023-09-08T13:22:33;5.53;;;5.00;;
82028;SDS011;71590;52.216;13.448;2023-09-08T13:25:00;8.52;;;5.75;;
82028;SDS011;71590;52.216;13.448;2023-09-08T13:27:27;5.32;;;5.00;;
82028;SDS011;71590;52.216;13.448;2023-09-08T13:30:07;6.10;;;5.60;;
82028;SDS011;71590;52.216;13.448;2023-09-08T13:32:35;6.43;;;5.60;;
82028;SDS011;71590;52.216;13.448;2023-09-08T13:35:02;9.30;;;5.90;;
82028;SDS011;71590;52.216;13.448;2023-09-08T13:37:30;6.45;;;5.85;;
82028;SDS011;71590;52.216;13.448;2023-09-08T13:39:57;7.07;;;5.30;;
82028;SDS011;71590;52.216;13.448;2023-09-08T13:42:24;6.47;;;5.60;;
82028;SDS011;71590;52.216;13.448;2023-09-08T13:44:52;5.82;;;5.22;;
82028;SDS011;71590;52.216;13.448;2023-09-08T13:47:21;6.65;;;6.05;;
82028;SDS011;71590;52.216;13.448;2023-09-08T13:49:50;6.82;;;6.30;;
82028;SDS011;71590;52.216;13.448;2023-09-08T13:52:19;5.90;;;5.40;;
82028;SDS011;71590;52.216;13.448;2023-09-08T13:54:48;6.65;;;6.13;;
82028;SDS011;71590;52.216;13.448;2023-09-08T13:57:36;6.57;;;6.05;;
82028;SDS011;71590;52.216;13.448;2023-09-08T14:00:07;6.82;;;6.15;;
82028;SDS011;71590;52.216;13.448;2023-09-08T14:02:42;7.07;;;6.47;;
82028;SDS011;71590;52.216;13.448;2023-09-08T14:05:16;7.35;;;6.55;;
82028;SDS011;71590;52.216;13.448;2023-09-08T14:07:50;6.70;;;6.10;;
82028;SDS011;71590;52.216;13.448;2023-09-08T14:10:22;7.07;;;6.57;;
82028;SDS011;71590;52.216;13.448;2023-09-08T14:12:53;6.40;;;5.90;;
82028;SDS011;71590;52.216;13.448;2023-09-08T14:15:20;8.13;;;6.35;;
82028;SDS011;71590;52.216;13.448;2023-09-08T14:17:47;7.10;;;6.15;;
82028;SDS011;71590;52.216;13.448;2023-09-08T14:20:15;7.70;;;6.95;;
82028;SDS011;71590;52.216;13.448;2023-09-08T14:22:43;7.40;;;6.80;;
82028;SDS011;71590;52.216;13.448;2023-09-08T14:25:10;6.68;;;6.25;;
82028;SDS011;71590;52.216;13.448;2023-09-08T14:27:38;8.75;;;6.82;;
82028;SDS011;71590;52.216;13.448;2023-09-08T14:30:05;6.75;;;6.25;;
82028;SDS011;71590;52.216;13.448;2023-09-08T14:32:33;7.00;;;6.13;;
82028;SDS011;71590;52.216;13.448;2023-09-08T14:35:00;6.93;;;6.28;;
82028;SDS011;71590;52.216;13.448;2023-09-08T14:37:28;7.82;;;6.47;;
82028;SDS011;71590;52.216;13.448;2023-09-08T14:39:55;7.50;;;6.80;;